Date,TemperatureHighF,TemperatureAvgF,TemperatureLowF,DewpointHighF,DewpointAvgF,DewpointLowF,HumidityHigh,HumidityAvg,HumidityLow,PressureMaxIn,PressureMinIn,WindSpeedMaxMPH,WindSpeedAvgMPH,GustSpeedMaxMPH,PrecipitationSumIn
2013-1-1,38,31,21,27,17,10,76,56,46,29.90,29.72,28,3,28,0.00
2013-1-2,22,16,11,10,8,3,82,69,56,29.94,29.90,11,0,11,0.00
2013-1-5,42,31,21,24,21,19,90,69,41,30.24,30.10,13,1,13,0.10
2013-1-6,42,31,22,32,26,19,95,83,59,30.20,29.91,11,0,11,0.12
2013-1-7,40,28,23,32,24,22,97,89,55,30.23,29.94,13,0,13,0.02
2013-1-8,41,35,30,31,30,29,95,81,65,30.35,30.33,13,1,13,0.01
2013-1-9,42,32,21,32,28,19,96,86,68,30.37,30.17,3,0,3,0.00
2013-1-10,41,40,40,26,25,24,56,55,53,30.30,30.30,12,3,12,0.00
2013-1-11,40,38,29,31,29,25,86,71,67,30.48,30.30,3,0,3,0.00
2013-1-14,54,52,51,54,52,50,99,99,99,29.99,29.89,10,1,10,0.00
2013-1-15,34,34,33,33,33,32,97,97,97,30.26,30.23,0,0,0,0.05
2013-1-17,30,30,30,30,29,29,98,98,98,29.90,29.86,1,0,1,0.01
2013-1-18,21,21,20,1,0,-1,42,40,40,30.22,30.19,6,1,6,0.00
2013-1-19,47,43,36,31,29,26,69,57,51,30.20,30.00,20,3,21,0.07
2013-1-21,29,26,24,23,14,5,91,62,39,30.08,29.76,10,1,10,0.00
2013-1-22,24,22,20,22,20,16,93,91,84,29.78,29.73,7,0,8,0.00
2013-1-24,3,3,3,-7,-8,-9,63,60,58,30.10,30.09,6,1,6,0.00
2013-1-25,8,8,7,-6,-7,-8,53,51,48,30.26,30.25,6,1,6,0.00
2013-1-26,24,19,14,7,6,4,75,55,44,30.03,29.99,11,2,11,0.00
2013-1-27,30,24,18,5,2,-2,56,40,27,30.44,30.34,10,0,10,0.01
2013-1-28,20,14,13,9,6,3,78,70,50,30.44,30.38,0,0,0,0.00
2013-1-29,33,32,28,32,31,27,98,97,95,30.17,30.05,1,0,1,0.20
2013-1-30,42,36,33,41,36,32,99,99,98,30.13,29.92,5,0,5,0.07
2013-1-31,60,54,47,59,50,38,97,89,65,29.16,28.99,30,5,30,0.63
2013-2-4,22,22,21,14,14,13,72,71,70,29.77,29.74,10,2,10,0.00
2013-2-7,17,16,16,10,9,8,76,72,69,30.44,30.38,0,0,0,0.00
2013-2-8,31,30,30,25,25,24,79,79,78,30.30,30.27,10,1,10,0.00
2013-2-9,23,19,13,22,17,10,96,93,90,30.17,29.67,0,0,0,0.00
2013-2-10,13,9,3,10,7,0,90,88,85,30.36,30.17,0,0,0,0.00
2013-2-11,44,40,21,44,40,19,100,99,95,30.18,29.61,17,0,17,1.16
2013-2-12,43,37,28,31,28,25,94,71,52,29.87,29.64,22,2,22,0.07
2013-2-13,28,26,24,25,24,23,93,92,89,29.83,29.81,1,0,1,0.00
2013-2-14,28,27,27,25,25,25,92,91,90,29.78,29.74,1,0,1,0.00
2013-2-16,34,34,34,32,31,31,90,89,88,29.90,29.89,6,0,6,0.00
2013-2-18,30,27,18,3,1,-3,47,33,25,30.04,29.92,20,5,20,0.00
2013-2-20,34,33,32,22,20,18,64,58,53,29.65,29.64,19,4,19,0.00
2013-2-21,25,25,25,13,13,12,60,59,58,29.81,29.80,17,3,17,0.00
2013-2-22,26,26,26,19,18,18,75,74,72,30.34,30.29,6,1,6,0.00
2013-2-23,32,32,32,27,27,27,83,83,83,30.22,30.21,0,0,0,0.00
2013-2-25,42,36,30,32,30,27,96,80,60,30.23,29.98,10,0,10,0.10
2013-2-26,46,36,26,33,28,25,98,76,46,30.31,30.21,11,1,11,0.01
2013-2-27,41,41,41,41,40,40,99,98,98,29.89,29.86,17,2,17,0.33
2013-3-1,32,31,31,32,31,30,99,98,98,29.56,29.55,1,0,2,0.00
2013-3-2,43,38,32,30,27,26,78,64,53,29.65,29.59,13,1,13,0.00
2013-3-3,43,36,32,31,28,25,93,72,54,29.61,29.53,12,1,12,0.00
2013-3-4,41,35,29,29,24,20,89,65,51,29.70,29.55,20,4,20,0.00
2013-3-5,34,32,31,24,23,23,72,69,67,29.88,29.70,17,3,17,0.00
2013-3-6,37,37,37,36,36,36,98,97,96,30.03,30.00,12,2,12,0.04
2013-3-7,33,32,32,32,32,32,99,98,97,29.95,29.93,17,1,17,0.06
2013-3-9,44,39,30,32,29,23,77,68,59,30.24,30.15,14,2,14,0.29
2013-3-10,46,39,32,34,32,30,97,76,59,30.38,30.30,11,1,11,0.52
2013-3-11,51,41,34,41,37,32,98,86,67,30.31,30.13,11,1,11,0.00
2013-3-12,40,38,37,40,37,36,99,98,97,30.15,30.04,0,0,0,0.00
2013-3-13,38,38,38,34,34,34,86,86,86,29.75,29.75,4,1,5,0.00
2013-3-14,32,32,32,22,22,21,66,65,62,29.76,29.76,10,1,10,0.00
2013-3-17,38,30,24,19,10,2,82,45,24,30.29,29.95,13,1,13,0.00
2013-3-18,25,21,17,12,6,2,63,51,37,30.44,30.28,7,0,7,0.00
2013-3-20,32,30,28,21,20,19,72,68,62,29.74,29.74,16,4,19,0.00
2013-3-21,29,28,28,25,25,24,88,86,83,29.76,29.75,1,0,1,0.00
2013-3-22,29,28,28,20,19,19,70,69,68,29.62,29.60,7,1,7,0.00
2013-3-23,31,30,30,23,23,22,73,73,72,29.71,29.71,7,1,7,0.00
2013-3-24,40,36,33,24,23,22,67,60,49,29.80,29.78,12,2,13,0.00
2013-3-25,29,29,29,28,27,27,93,92,92,29.66,29.66,0,0,0,0.00
2013-3-26,33,33,32,31,31,31,95,94,92,29.60,29.59,2,0,2,0.04
2013-3-27,25,25,25,23,23,22,92,91,91,29.77,29.76,0,0,0,0.00
2013-3-30,48,42,39,32,30,27,74,64,46,30.05,30.03,11,1,11,0.00
2013-3-31,53,42,31,30,28,25,92,62,34,30.09,30.07,7,0,7,0.00
2013-4-1,44,44,44,43,43,42,96,96,95,29.60,29.58,13,3,13,0.05
2013-4-2,28,27,27,18,17,17,66,65,64,29.86,29.85,3,0,3,0.00
2013-4-3,31,31,31,17,16,15,55,52,50,29.98,29.96,13,3,14,0.00
2013-4-5,40,39,38,32,32,31,75,75,74,29.93,29.92,3,0,3,0.00
2013-4-6,35,34,34,17,14,10,48,42,35,30.15,30.09,13,4,16,0.00
2013-4-9,52,51,50,50,49,49,95,94,91,29.89,29.86,5,0,5,0.00
2013-4-12,42,42,42,32,32,32,69,69,68,30.10,30.10,6,2,11,0.00
2013-4-13,38,38,38,37,36,36,95,94,94,29.77,29.75,6,1,7,0.02
2013-4-15,43,34,31,34,31,29,95,89,68,30.34,30.27,3,0,3,0.00
2013-4-17,55,55,55,44,44,44,68,67,66,30.12,30.11,11,1,11,0.00
2013-4-18,53,49,44,39,37,33,82,64,49,30.39,30.39,12,2,12,0.00
2013-4-22,50,38,30,35,31,27,97,79,41,30.71,30.67,16,1,16,0.00
2013-4-24,44,44,44,42,42,42,95,95,94,29.93,29.92,11,3,11,0.01
2013-4-25,49,48,48,43,41,38,80,76,69,30.01,29.99,14,4,16,0.03
2013-4-26,46,44,43,37,36,35,74,73,70,30.34,30.32,7,0,7,0.00
2013-4-28,57,50,44,42,42,40,93,73,56,30.32,30.31,3,0,3,0.00
2013-4-29,46,44,44,44,43,43,96,96,96,30.26,30.25,0,0,0,0.00
2013-4-30,40,37,36,38,35,34,95,93,92,30.29,30.27,0,0,0,0.00
2013-5-1,41,38,37,38,37,36,96,94,87,30.42,30.42,0,0,0,0.00
2013-5-2,38,38,38,37,37,37,96,96,96,30.41,30.40,0,0,0,0.00
2013-5-3,46,44,42,43,43,41,98,96,92,30.47,30.46,6,0,7,0.00
2013-5-5,62,62,61,42,41,40,49,47,46,30.27,30.26,11,2,11,0.00
2013-5-6,46,45,45,44,43,43,94,93,92,30.27,30.27,1,0,3,0.00
2013-5-7,46,46,46,46,45,45,99,98,98,30.16,30.15,0,0,1,0.00
2013-5-10,57,56,54,56,55,54,99,99,99,29.93,29.91,1,0,1,0.00
2013-5-11,58,58,58,56,56,56,96,96,96,29.85,29.83,5,0,5,0.02
2013-5-13,49,41,37,37,36,33,94,84,59,29.93,29.90,8,0,8,0.00
2013-5-14,42,41,41,35,35,34,80,77,71,30.01,30.01,5,0,5,0.00
2013-5-15,38,36,35,36,35,34,97,97,96,30.04,30.03,0,0,0,0.00
2013-5-17,55,50,47,46,45,44,93,84,68,29.94,29.92,11,1,11,0.00
2013-5-20,83,73,59,68,64,58,99,74,52,30.05,29.89,12,1,12,0.04
2013-5-22,54,53,53,53,53,53,99,99,99,29.90,29.88,1,0,1,0.01
2013-5-23,65,64,64,64,64,63,99,99,99,29.89,29.88,6,0,6,0.01
2013-5-24,63,63,63,63,63,63,99,99,99,29.68,29.68,3,0,3,0.45
2013-5-25,50,50,50,50,50,49,99,99,98,29.73,29.73,7,0,7,0.13
2013-5-28,47,43,42,46,43,41,99,98,97,30.20,30.19,0,0,0,0.00
2013-5-29,59,59,59,59,58,58,99,99,98,30.11,30.10,3,0,3,0.58
2013-5-30,88,88,86,71,69,67,59,54,50,30.00,29.99,10,0,10,0.00
2013-6-3,66,65,64,65,64,64,98,98,98,29.84,29.82,5,0,5,0.06
2013-6-5,58,53,50,52,51,50,99,95,81,30.15,30.14,3,0,3,0.00
2013-6-6,56,53,52,54,52,51,98,97,97,30.16,30.16,0,0,0,0.00
2013-6-7,55,55,55,54,54,54,97,97,97,30.02,30.02,3,0,3,0.03
2013-6-8,56,56,55,56,55,55,99,99,99,29.67,29.58,11,2,11,0.91
2013-6-9,69,69,69,58,58,57,69,67,65,30.10,30.10,13,2,13,0.00
2013-6-11,60,59,59,60,59,59,99,99,99,29.73,29.71,0,0,2,0.58
2013-6-12,59,59,58,58,58,58,98,98,98,29.60,29.58,3,1,3,0.00
2013-6-13,56,56,56,54,54,54,95,95,95,29.68,29.67,3,0,3,0.18
2013-6-16,77,72,57,58,56,53,88,59,43,29.91,29.74,8,0,8,0.00
2013-6-24,92,90,90,72,69,68,56,50,46,29.87,29.86,5,1,8,0.00
2013-6-28,71,71,71,70,70,70,97,97,97,29.56,29.54,6,0,7,0.00
2013-6-30,79,76,73,70,67,64,88,75,72,29.91,29.88,1,0,2,0.00
2013-7-1,71,71,71,70,65,0,96,89,96,29.97,29.96,0,0,0,0.00
2013-7-7,89,84,78,73,71,70,81,66,55,30.00,29.97,6,0,7,0.00
2013-7-8,75,74,72,74,73,71,97,96,96,29.92,29.91,0,0,1,0.00
2013-7-11,79,76,72,75,73,70,96,91,82,29.86,29.80,2,0,8,0.42
2013-7-13,67,66,66,65,65,65,96,96,96,30.27,30.25,2,0,2,0.01
2013-7-14,83,77,73,76,74,72,97,92,78,30.28,30.26,6,0,6,0.00
2013-7-15,78,76,74,77,75,73,97,97,97,30.17,30.16,0,0,0,0.00
2013-7-16,71,70,70,70,69,68,96,95,95,30.11,30.11,1,0,1,0.00
2013-7-17,70,70,69,69,68,68,95,95,95,30.15,30.15,0,0,0,0.00
2013-7-18,73,73,72,70,70,69,91,91,90,29.96,29.96,0,0,0,0.00
2013-7-19,77,77,76,76,75,75,96,96,95,29.87,29.87,0,0,0,0.00
2013-7-20,84,83,82,77,77,76,84,81,78,29.71,29.71,2,0,2,0.00
2013-7-23,76,75,73,75,74,72,97,97,96,29.67,29.61,3,0,3,0.09
2013-7-24,72,72,72,71,71,71,97,97,97,29.59,29.58,0,0,0,0.00
2013-7-26,62,62,62,62,61,61,98,98,98,29.94,29.93,6,0,7,0.25
2013-7-27,66,66,65,65,65,64,98,98,98,30.04,30.02,2,0,2,0.00
2013-7-28,69,69,69,68,68,68,97,96,96,29.95,29.94,1,0,2,0.00
2013-7-29,72,70,68,71,69,67,97,97,96,30.00,29.98,3,0,3,0.00
2013-7-30,63,62,60,59,59,58,92,90,89,30.05,30.04,3,0,3,0.00
2013-7-31,59,59,59,58,58,58,96,96,96,30.10,30.09,0,0,0,0.00
2013-8-1,61,61,61,60,60,60,96,96,96,29.99,29.99,0,0,0,0.00
2013-8-2,65,64,64,64,63,63,97,96,96,29.79,29.79,0,0,0,0.03
2013-8-5,56,54,54,55,54,53,98,98,97,29.94,29.92,6,0,6,0.00
2013-8-7,53,53,52,52,52,51,96,96,96,30.17,30.16,0,0,0,0.00
2013-8-8,66,66,66,63,62,62,89,89,88,30.06,30.06,0,0,0,0.00
2013-8-9,72,72,72,70,70,70,92,92,92,29.99,29.99,0,0,1,0.00
2013-8-10,71,69,68,66,65,64,92,87,81,29.88,29.87,8,1,10,0.00
2013-8-11,54,54,54,48,48,48,81,81,81,30.06,30.06,0,0,0,0.00
2013-8-13,65,64,62,64,63,62,97,97,97,29.85,29.83,0,0,0,0.00
2013-8-14,63,62,61,56,52,50,79,71,64,29.73,29.69,8,1,8,0.00
2013-8-15,52,52,51,51,51,50,97,97,96,30.04,30.03,0,0,0,0.00
2013-8-16,52,51,51,50,50,50,96,96,96,30.12,30.11,0,0,0,0.00
2013-8-18,72,70,66,64,64,62,95,82,73,30.25,30.25,0,0,0,0.00
2013-8-20,64,62,62,63,61,60,96,96,96,30.03,30.01,1,0,1,0.00
2013-8-21,60,60,59,59,58,58,97,96,96,30.12,30.12,0,0,0,0.00
2013-8-22,64,63,63,62,62,62,96,96,96,29.99,29.99,0,0,0,0.00
2013-8-27,69,69,69,68,68,68,97,97,97,29.82,29.82,0,0,0,0.00
2013-8-30,61,61,61,58,58,58,90,90,90,29.98,29.97,0,0,0,0.00
2013-8-31,80,77,71,73,72,70,97,84,77,29.83,29.80,3,0,3,0.00
2013-9-1,73,73,72,71,71,71,95,95,95,29.86,29.85,1,0,1,0.21
2013-9-7,44,44,44,44,43,43,97,96,96,30.05,30.04,0,0,0,0.00
2013-9-9,60,49,42,49,45,41,97,87,61,30.22,30.19,3,0,3,0.00
2013-9-10,63,60,58,58,57,56,92,89,86,30.13,30.12,2,0,2,0.00
2013-9-14,58,58,58,54,54,53,88,87,86,29.80,29.79,3,0,3,0.00
2013-9-15,51,49,47,51,49,46,98,98,97,30.13,30.12,0,0,0,0.00
2013-9-16,57,54,52,56,53,51,97,97,96,30.04,30.01,1,0,1,0.00
2013-9-17,42,42,42,38,37,37,86,85,83,30.33,30.30,5,0,5,0.00
2013-9-18,49,41,38,48,41,37,99,98,97,30.30,30.29,5,0,5,0.00
2013-9-19,44,43,42,43,42,42,98,97,97,30.11,30.10,0,0,0,0.00
2013-9-20,45,45,45,45,44,44,97,97,97,30.05,30.03,0,0,0,0.00
2013-9-21,59,59,59,58,58,58,98,98,98,29.98,29.98,0,0,0,0.00
2013-9-22,69,68,67,67,66,65,93,93,93,29.63,29.63,6,1,6,0.19
2013-9-23,48,46,46,42,42,40,87,84,79,29.90,29.87,5,1,5,0.00
2013-9-24,43,43,42,40,40,40,92,90,89,29.94,29.94,6,0,6,0.00
2013-9-25,42,42,42,41,41,41,96,96,96,29.87,29.87,0,0,0,0.00
2013-9-26,55,54,54,50,50,49,88,86,83,30.00,29.97,3,0,3,0.00
2013-9-27,56,55,55,52,52,52,89,88,85,30.17,30.16,1,0,1,0.00
2013-9-28,49,48,47,48,47,46,98,98,98,30.27,30.26,1,0,1,0.00
2013-9-29,48,45,43,47,45,43,99,99,98,30.21,30.20,0,0,0,0.00
2013-9-30,53,53,53,53,53,53,98,98,98,30.08,30.07,2,0,2,0.00
2013-10-1,42,41,41,41,40,40,97,97,97,29.93,29.92,0,0,0,0.00
2013-10-4,56,51,46,55,50,46,98,98,96,30.05,30.04,0,0,0,0.00
2013-10-5,58,58,58,57,57,57,98,98,98,30.07,30.06,0,0,0,0.00
2013-10-6,59,58,58,58,57,56,97,96,96,30.19,30.16,6,0,6,0.00
2013-10-7,60,60,60,59,59,59,98,98,98,30.02,30.02,0,0,0,0.00
2013-10-8,53,52,52,48,48,48,85,84,83,30.09,30.08,2,0,2,0.00
2013-10-9,43,43,42,42,42,42,97,97,97,30.38,30.38,1,0,1,0.00
2013-10-10,46,46,45,45,45,45,98,98,97,30.29,30.28,0,0,0,0.00
2013-10-11,56,56,55,53,53,52,92,91,90,30.10,30.10,5,0,6,0.00
2013-10-12,57,54,53,56,54,52,97,97,97,30.21,30.19,6,0,6,0.00
2013-10-13,47,46,46,46,45,45,97,97,96,30.37,30.35,0,0,0,0.00
2013-10-15,44,44,43,43,42,42,96,96,96,30.24,30.23,0,0,0,0.00
2013-10-16,56,56,55,54,54,54,96,96,95,29.93,29.90,2,0,2,0.00
2013-10-17,67,59,51,60,57,50,98,93,77,29.85,29.72,7,0,7,0.00
2013-10-18,63,58,52,62,55,42,97,89,63,29.89,29.61,8,0,8,0.01
2013-10-19,56,45,37,50,42,36,99,89,76,29.97,29.78,2,0,2,0.00
2013-10-21,64,45,33,40,36,32,98,80,38,30.10,30.03,8,1,8,0.00
2013-10-22,43,39,37,43,38,36,98,97,96,29.90,29.85,0,0,0,0.00
2013-10-23,37,37,36,36,36,36,96,96,96,29.75,29.74,0,0,0,0.00
2013-10-24,40,39,37,35,35,34,90,86,83,29.76,29.73,2,0,3,0.00
2013-10-25,32,32,31,29,28,28,88,88,87,29.98,29.94,0,0,0,0.00
2013-10-26,26,26,26,25,25,25,95,95,95,30.14,30.14,0,0,0,0.00
2013-10-27,43,42,41,41,40,40,95,94,92,29.85,29.82,0,0,0,0.02
2013-10-28,28,28,28,27,27,27,95,95,94,30.12,30.09,0,0,0,0.00
2013-10-29,37,34,33,27,25,24,73,70,66,30.41,30.39,6,0,6,0.00
2013-10-31,32,32,32,30,30,30,91,91,91,30.19,30.16,0,0,0,0.00
2013-11-1,66,64,63,62,60,60,91,88,88,29.62,29.59,5,0,5,0.00
2013-11-2,54,50,50,50,45,45,83,83,83,29.66,29.64,0,0,0,0.00
2013-11-3,43,41,40,39,38,36,93,88,76,30.10,29.98,12,1,12,0.00
2013-11-4,29,29,29,18,18,17,65,64,63,30.56,30.54,3,0,3,0.00
2013-11-5,25,25,25,23,23,23,93,92,92,30.68,30.67,0,0,0,0.00
2013-11-8,36,31,30,31,29,28,95,92,85,29.92,29.87,2,0,2,0.00
2013-11-9,44,41,36,25,24,21,63,51,41,30.18,30.13,14,4,14,0.00
2013-11-10,45,44,43,45,43,42,97,97,96,29.85,29.83,1,0,1,0.00
2013-11-11,41,40,39,28,28,27,63,61,59,30.07,30.01,10,1,15,0.00
2013-11-13,26,25,25,16,16,16,67,67,66,30.23,30.21,14,2,14,0.00
2013-11-14,32,31,31,20,20,20,65,64,63,30.11,30.10,6,0,6,0.00
2013-11-15,27,26,25,24,23,22,89,88,88,30.19,30.16,0,0,0,0.00
2013-11-16,42,38,37,39,36,35,94,93,85,30.27,30.23,0,0,0,0.00
2013-11-19,41,40,39,26,26,26,61,57,55,29.82,29.79,11,1,11,0.00
2013-11-20,28,26,25,17,17,17,70,68,64,30.46,30.42,6,0,6,0.00
2013-11-21,36,26,22,21,19,17,84,75,54,30.61,30.58,2,0,2,0.00
2013-11-25,17,17,17,1,1,0,49,48,47,30.31,30.30,4,0,4,0.00
2013-11-28,30,30,30,18,18,17,62,59,56,29.97,29.87,26,6,26,0.00
2013-11-29,28,27,26,16,16,15,63,62,61,30.54,30.52,3,0,3,0.00
2013-12-1,43,42,37,43,42,36,99,98,97,30.20,30.04,2,0,2,0.01
2013-12-2,36,36,36,36,36,36,99,99,99,29.95,29.95,1,0,1,0.00
2013-12-3,36,36,36,36,35,35,98,98,98,29.87,29.86,3,0,3,0.00
2013-12-4,32,29,27,31,28,26,98,98,97,30.07,30.05,6,0,6,0.00
2013-12-5,36,36,36,35,35,34,96,96,96,30.15,30.15,1,0,1,0.00
2013-12-6,56,55,55,55,55,55,99,99,99,29.89,29.86,1,0,2,0.00
2013-12-10,33,33,32,32,32,32,99,99,99,29.79,29.75,0,0,1,0.00
2013-12-11,23,22,22,19,18,18,86,85,85,30.16,30.14,0,0,0,0.00
2013-12-13,20,18,18,8,8,8,65,63,61,30.02,30.01,7,1,7,0.00
2013-12-14,15,13,13,0,-1,-3,56,51,45,30.57,30.51,12,2,12,0.02
2013-12-15,38,28,24,37,24,20,98,88,77,29.74,29.34,17,1,17,0.03
2013-12-16,27,24,20,22,20,14,93,85,61,29.87,29.74,14,1,14,0.00
2013-12-17,10,4,1,7,1,-2,89,86,84,30.24,30.22,0,0,0,0.00
2013-12-18,23,23,22,20,19,18,86,86,86,29.88,29.86,10,2,10,0.00
2013-12-20,30,29,29,28,27,26,92,91,91,30.09,30.09,0,0,0,0.00
2013-12-23,37,37,36,36,36,36,98,98,98,30.03,30.01,5,0,6,0.00
2013-12-24,34,33,32,27,25,23,76,71,68,30.13,30.07,11,1,11,0.16
2013-12-25,21,20,19,4,3,1,49,47,44,30.44,30.42,9,2,9,0.00
2013-12-26,33,30,26,31,27,23,93,90,86,30.31,30.20,1,0,1,0.00
2013-12-28,38,30,24,30,26,21,90,84,72,30.13,30.10,8,0,8,0.00
2013-12-29,31,30,30,29,28,28,93,93,93,29.98,29.98,0,0,0,0.00
2013-12-30,33,33,32,33,32,31,98,98,97,29.78,29.72,2,0,2,0.00
2013-12-31,21,20,19,4,4,2,49,48,48,30.08,30.05,6,0,6,0.00
2014-1-1,26,24,17,11,9,8,77,53,46,30.36,30.31,16,2,16,0.00
2014-1-2,23,22,22,21,20,19,91,90,90,30.20,30.17,5,0,5,0.00